Latest Weather Observations for Tasman Island

IDT60901

Issued at 11:11 pm EST Wednesday 12 August 2020 (issued every 10 minutes, with the page automatically refreshed every 10 minutes)

About weather observations | Map of Hobart area stations | Latest observations for Hobart area | Other Formats
Station Details ID: 094155 Name: TASMAN ISLAND Lat: -43.24 Lon: 148.00 Height: 240.0 m
Data from the previous 72 hours. | See also: Recent months at Tasman Island
Date/Time
EST
Temp
°C
App
Temp
°C
Dew
Point
°C
Rel
Hum
%
Delta-T
°C
Wind Press
QNH
hPa
Press
MSL
hPa
Rain since
9am
mm
Dir  Spd
km/h
Gust
km/h
Spd
kts
Gust
kts
12/11:00pm 9.6 5.8 4.0 68 2.5 NNE 13 24 7 13 1009.7 1010.1 0.2
12/10:30pm 9.7 5.1 3.7 66 2.7 NNE 17 24 9 13 1009.8 1010.2 0.2
12/10:00pm 9.5 4.6 3.9 68 2.5 NNE 19 26 10 14 1009.8 1010.2 0.2
12/09:30pm 10.0 4.6 4.4 68 2.5 N 22 28 12 15 1009.8 1010.2 0.2
12/09:00pm 10.0 5.2 4.4 68 2.5 NNE 19 26 10 14 1009.6 1010.0 0.2
12/08:30pm 9.9 5.1 4.7 70 2.4 NNE 19 24 10 13 1009.5 1009.9 0.2
12/08:00pm 9.4 4.5 5.2 75 1.9 N 20 26 11 14 1009.5 1009.9 0.2
12/07:30pm 9.1 4.7 4.7 74 2.0 N 17 28 9 15 1009.6 1010.0 0.2
12/07:00pm 9.4 4.5 4.2 70 2.3 NNW 19 26 10 14 1009.3 1009.6 0.0
12/06:30pm 9.8 4.9 4.0 67 2.6 NNW 19 26 10 14 1009.2 1009.5 0.0
12/06:00pm 10.2 7.1 3.7 64 2.9 NNW 9 15 5 8 1009.0 1009.3 0.0
12/05:30pm 10.1 6.5 4.9 70 2.4 WNW 13 24 7 13 1008.5 1008.8 0.0
12/05:00pm 9.9 7.8 5.9 76 1.9 NNE 6 7 3 4 1008.7 1009.0 0.0
12/04:30pm 10.6 8.8 5.2 69 2.5 WNW 4 7 2 4 1008.4 1008.7 0.0
12/04:00pm 10.6 9.3 5.8 72 2.3 NW 2 6 1 3 1008.5 1008.8 0.0
12/03:30pm 11.2 9.2 4.4 63 3.1 W 4 9 2 5 1008.4 1008.7 0.0
12/03:00pm 11.5 8.5 4.3 61 3.3 WNW 9 13 5 7 1008.4 1008.7 0.0
12/02:30pm 11.8 9.3 4.5 61 3.4 W 7 20 4 11 1008.4 1008.7 0.0
12/02:00pm 11.9 9.6 4.6 61 3.4 WNW 6 9 3 5 1008.5 1008.8 0.0
12/01:30pm 12.3 10.0 5.9 65 3.0 NW 7 9 4 5 1008.8 1009.1 0.0
12/01:00pm 11.4 9.3 5.9 69 2.6 E 6 13 3 7 1009.1 1009.4 0.0
12/12:30pm 12.5 10.4 5.7 63 3.2 N 6 11 3 6 1009.3 1009.6 0.0
12/12:00pm 12.0 8.3 4.2 59 3.6 NNW 13 24 7 13 1009.7 1010.1 0.0
12/11:30am 12.0 8.9 3.5 56 3.8 NNE 9 20 5 11 1009.9 1010.3 0.0
12/11:00am 10.8 8.0 3.4 60 3.3 N 7 15 4 8 1010.3 1010.6 0.0
12/10:30am 10.6 7.5 3.6 62 3.1 NNE 9 15 5 8 1010.5 1010.8 0.0
12/10:00am 9.7 5.6 4.3 69 2.4 NNE 15 20 8 11 1010.8 1011.1 0.0
12/09:30am 9.0 4.3 5.0 76 1.8 NNE 19 26 10 14 1010.8 1011.1 0.0
12/09:00am 8.9 4.1 4.9 76 1.8 NNE 19 28 10 15 1011.0 1011.3 0.0
12/08:30am 8.7 4.4 5.4 80 1.5 NNE 17 24 9 13 1011.1 1011.4 0.0
12/08:00am 9.1 5.1 3.1 66 2.6 NNE 13 17 7 9 1011.2 1011.5 0.0
12/07:30am 9.2 6.5 2.8 64 2.8 N 6 11 3 6 1011.2 1011.5 0.0
12/07:00am 8.7 5.7 3.9 72 2.1 NNE 9 13 5 7 1011.3 1011.6 0.0
12/06:30am 8.5 4.9 2.9 68 2.4 NNE 11 19 6 10 1011.3 1011.6 0.0
12/06:00am 8.5 5.1 1.9 63 2.8 NNE 9 11 5 6 1011.3 1011.6 0.0
12/05:30am 9.2 6.6 1.1 57 3.4 WNW 4 9 2 5 1011.4 1011.7 0.0
12/05:00am 9.3 6.2 1.5 58 3.3 NNW 7 9 4 5 1011.4 1011.7 0.0
12/04:30am 8.0 3.6 2.9 70 2.2 NNW 15 20 8 11 1011.6 1011.9 0.0
12/04:00am 8.3 4.4 3.2 70 2.2 N 13 17 7 9 1011.6 1011.9 0.0
12/03:30am 7.8 4.0 4.0 77 1.7 N 13 20 7 11 1011.8 1012.1 0.0
12/03:00am 7.2 4.0 2.9 74 1.8 N 9 13 5 7 1012.1 1012.4 0.0
12/02:30am 8.0 4.8 2.9 70 2.2 NW 9 11 5 6 1012.5 1012.8 0.0
12/02:00am 7.9 5.2 3.6 74 1.9 NNW 7 11 4 6 1012.6 1012.9 0.0
12/01:30am 7.8 5.9 4.7 81 1.4 NNW 4 7 2 4 1012.7 1013.0 0.0
12/01:00am 8.0 4.8 5.3 83 1.2 N 11 17 6 9 1012.9 1013.3 0.0
12/12:30am 7.9 4.7 5.0 82 1.3 N 11 17 6 9 1013.1 1013.5 0.0
12/12:00am 8.3 5.3 5.9 85 1.1 N 11 20 6 11 1013.3 1013.7 0.0
 
Date/Time
EST
Temp
°C
App
Temp
°C
Dew
Point
°C
Rel
Hum
%
Delta-T
°C
Wind Press
QNH
hPa
Press
MSL
hPa
Rain since
9am
mm
Dir  Spd
km/h
Gust
km/h
Spd
kts
Gust
kts
11/11:30pm 8.1 4.0 6.1 87 0.9 N 17 28 9 15 1013.2 1013.6 0.0
11/11:00pm 8.1 4.3 5.9 86 1.0 N 15 26 8 14 1013.2 1013.6 0.0
11/10:30pm 8.1 4.3 5.7 85 1.1 N 15 28 8 15 1013.7 1014.1 0.0
11/10:00pm 8.1 3.3 5.6 84 1.1 NNE 20 32 11 17 1013.6 1014.0 0.0
11/09:30pm 8.0 3.2 5.5 84 1.1 NNE 20 35 11 19 1013.9 1014.3 0.0
11/09:00pm 7.6 2.7 4.9 83 1.2 NNE 20 28 11 15 1014.1 1014.5 0.0
11/08:30pm 7.5 2.6 4.3 80 1.4 N 19 30 10 16 1014.6 1014.9 0.0
11/08:00pm 7.5 2.5 3.7 77 1.6 NNE 19 26 10 14 1014.6 1014.9 0.0
11/07:30pm 7.4 2.4 3.6 77 1.6 NNE 19 28 10 15 1014.6 1014.9 0.0
11/07:00pm 7.3 2.7 3.5 77 1.6 NNE 17 22 9 12 1014.6 1014.9 0.0
11/06:30pm 7.0 3.1 3.4 78 1.5 NNE 13 19 7 10 1014.6 1014.9 0.0
11/06:00pm 7.0 3.2 4.1 82 1.3 NE 13 19 7 10 1014.5 1014.8 0.0
11/05:30pm 6.9 4.1 5.2 89 0.8 ENE 9 15 5 8 1014.2 1014.6 0.0
11/05:00pm 6.8 3.7 5.4 91 0.6 ENE 11 15 6 8 1014.3 1014.7 0.0
11/04:30pm 6.8 4.6 5.4 91 0.6 E 6 9 3 5 1014.6 1014.9 0.0
11/04:00pm 6.7 4.5 5.3 91 0.6 E 6 9 3 5 1014.5 1014.8 0.0
11/03:30pm 6.9 4.7 5.2 89 0.8 ESE 6 7 3 4 1014.6 1014.9 0.0
11/03:00pm 7.2 4.9 5.0 86 1.0 SE 6 9 3 5 1014.8 1015.1 0.0
11/02:30pm 7.5 5.1 5.1 85 1.1 SE 7 9 4 5 1014.7 1015.0 0.0
11/02:00pm 8.1 5.9 5.4 83 1.2 SE 6 9 3 5 1014.7 1015.0 0.0
11/01:30pm 7.9 5.4 4.7 80 1.4 E 7 13 4 7 1015.0 1015.3 0.0
11/01:00pm 8.8 6.4 5.2 78 1.6 ENE 7 15 4 8 1015.2 1015.5 0.0
11/12:30pm 9.0 6.2 5.0 76 1.8 NE 9 17 5 9 1015.6 1015.9 0.0
11/12:00pm 9.2 6.3 4.6 73 2.1 NE 9 15 5 8 1015.9 1016.2 0.0
11/11:30am 8.4 5.8 4.0 74 1.9 WSW 7 13 4 7 1016.6 1017.0 0.0
11/11:00am 8.0 5.5 3.8 75 1.8 WNW 6 7 3 4 1017.0 1017.4 0.0
11/10:30am 7.4 4.9 3.5 76 1.7 W 6 11 3 6 1017.2 1017.6 0.0
11/10:00am 7.0 4.0 4.1 82 1.3 WSW 9 15 5 8 1017.1 1017.5 0.0
11/09:30am 6.6 3.5 3.4 80 1.4 W 9 15 5 8 1017.1 1017.5 0.0
11/09:00am 6.9 4.2 3.5 79 1.5 WNW 7 11 4 6 1017.6 1018.0 0.2
11/08:30am 7.6 5.3 4.7 82 1.3 N 6 9 3 5 1017.6 1018.0 0.2
11/08:00am 6.9 4.9 4.4 84 1.1 ENE 4 6 2 3 1017.5 1017.9 0.2
11/07:30am 5.4 3.2 3.1 85 1.0 SSW 4 9 2 5 1017.6 1018.0 0.2
11/07:00am 5.4 2.9 3.9 90 0.6 SSW 6 9 3 5 1017.6 1018.0 0.2
11/06:30am 6.0 3.6 2.3 77 1.5 NNW 4 7 2 4 1017.6 1018.0 0.2
11/06:00am 6.3 3.6 2.8 78 1.5 NNW 6 7 3 4 1017.5 1017.9 0.2
11/05:30am 5.0 2.6 4.1 94 0.4 SW 6 9 3 5 1017.4 1017.8 0.2
11/05:00am 5.3 1.6 4.3 93 0.4 WSW 13 19 7 10 1017.6 1018.0 0.0
11/04:30am 5.8 2.4 4.0 88 0.8 W 11 24 6 13 1017.6 1018.0 0.0
11/04:00am 5.8 2.6 3.3 84 1.1 SW 9 15 5 8 1017.4 1017.8 0.0
11/03:30am 7.2 2.5 3.1 75 1.7 NNE 17 26 9 14 1016.5 1016.9 0.0
11/03:00am 6.4 2.3 4.2 86 1.0 NNE 15 26 8 14 1016.7 1017.1 0.0
11/02:30am 5.7 1.6 4.5 92 0.5 NNE 15 19 8 10 1017.8 1018.2 0.0
11/02:00am 5.8 2.2 4.8 93 0.4 NE 13 15 7 8 1018.4 1018.8 0.0
11/01:30am 6.0 4.6 5.3 95 0.3 WNW 2 6 1 3 1018.9 1019.2 0.0
11/01:00am 5.9 3.6 5.0 94 0.4 WSW 6 6 3 3 1019.3 1019.6 0.0
11/12:30am 6.0 3.7 4.8 92 0.5 WNW 6 7 3 4 1019.5 1019.8 0.0
11/12:00am 6.2 4.6 4.7 90 0.7 ESE 2 4 1 2 1019.6 1019.9 0.0
 
Date/Time
EST
Temp
°C
App
Temp
°C
Dew
Point
°C
Rel
Hum
%
Delta-T
°C
Wind Press
QNH
hPa
Press
MSL
hPa
Rain since
9am
mm
Dir  Spd
km/h
Gust
km/h
Spd
kts
Gust
kts
10/11:30pm 6.6 4.8 5.4 92 0.5 SSE 4 6 2 3 1019.7 1020.0 0.0
10/11:00pm 6.1 4.3 5.4 95 0.3 NNW 4 6 2 3 1019.8 1020.1 0.0
10/10:30pm 6.2 3.8 5.3 94 0.4 SW 7 9 4 5 1020.3 1020.7 0.0
10/10:00pm 6.5 4.2 5.0 90 0.7 NNW 6 11 3 6 1020.2 1020.6 0.0
10/09:30pm 6.7 2.7 5.0 89 0.8 N 15 22 8 12 1019.9 1020.3 0.0
10/09:00pm 6.8 2.1 5.3 90 0.7 N 19 26 10 14 1019.8 1020.1 0.0
10/08:30pm 6.9 2.0 5.1 88 0.8 N 20 30 11 16 1019.8 1020.1 0.0
10/08:00pm 6.8 1.9 5.0 88 0.8 NNE 20 32 11 17 1019.9 1020.3 0.0
10/07:30pm 6.8 1.8 4.8 87 0.9 NNE 20 28 11 15 1020.2 1020.6 0.0
10/07:00pm 6.5 1.5 4.7 88 0.8 NNE 20 28 11 15 1020.3 1020.7 0.0
10/06:30pm 6.3 1.9 4.6 89 0.7 NNE 17 24 9 13 1020.5 1020.9 0.0
10/06:00pm 6.2 1.8 4.7 90 0.7 NNE 17 22 9 12 1020.5 1020.9 0.0
10/05:30pm 6.2 2.5 4.5 89 0.7 NNE 13 19 7 10 1020.5 1020.9 0.0
10/05:00pm 6.5 2.8 4.5 87 0.9 NNE 13 20 7 11 1020.8 1021.2 0.0
10/04:30pm 6.8 3.1 4.3 84 1.1 NNE 13 22 7 12 1020.7 1021.1 0.0
10/04:00pm 7.2 3.1 4.5 83 1.2 NNE 15 20 8 11 1020.6 1021.0 0.0
10/03:30pm 7.6 3.9 4.4 80 1.4 NNE 13 20 7 11 1020.6 1021.0 0.0
10/03:00pm 7.7 3.6 4.3 79 1.5 NNE 15 20 8 11 1020.8 1021.2 0.0
10/02:30pm 8.0 3.0 4.6 79 1.5 NNE 20 26 11 14 1020.4 1020.8 0.0
10/02:00pm 8.4 4.0 4.8 78 1.6 NNE 17 20 9 11 1020.5 1020.9 0.0
10/01:30pm 8.7 5.8 4.7 76 1.8 NE 9 17 5 9 1020.9 1021.3 0.0
10/01:00pm 8.9 7.0 4.7 75 1.9 NNW 4 7 2 4 1021.5 1021.9 0.0
10/12:30pm 9.0 6.8 5.2 77 1.7 W 6 9 3 5 1021.7 1022.1 0.0
10/12:00pm 7.9 5.0 4.5 79 1.5 NW 9 17 5 9 1022.0 1022.4 0.0
10/11:30am 7.3 4.3 4.1 80 1.4 W 9 17 5 9 1022.3 1022.7 0.0
10/11:00am 7.0 4.1 4.7 85 1.0 WSW 9 24 5 13 1022.5 1022.9 0.0
10/10:30am 6.8 3.9 4.8 87 0.9 WSW 9 22 5 12 1022.5 1022.9 0.0
10/10:00am 6.8 4.0 5.0 88 0.8 WSW 9 20 5 11 1022.6 1023.0 0.0
10/09:30am 6.6 3.8 5.1 90 0.7 W 9 20 5 11 1022.7 1023.1 0.0
10/09:00am 6.6 4.2 5.2 91 0.6 WSW 7 20 4 11 1022.7 1023.1 0.0
10/08:30am 6.2 3.4 5.0 92 0.5 WSW 9 32 5 17 1022.7 1023.1 0.0
10/08:00am 6.1 2.9 4.9 92 0.5 WSW 11 32 6 17 1022.7 1023.1 0.0
10/07:30am 6.0 3.5 4.8 92 0.5 WSW 7 26 4 14 1022.6 1023.0 0.0
10/07:00am 6.0 3.1 4.8 92 0.5 WSW 9 24 5 13 1022.5 1022.9 0.0
10/06:30am 5.9 3.0 4.9 93 0.4 W 9 26 5 14 1022.2 1022.6 0.0
10/06:00am 5.9 3.4 4.9 93 0.4 WSW 7 19 4 10 1022.1 1022.5 0.0
10/05:30am 6.1 3.6 4.9 92 0.5 WSW 7 24 4 13 1022.2 1022.6 0.0
10/05:00am 6.2 2.2 5.0 92 0.5 WSW 15 30 8 16 1022.1 1022.5 0.0
10/04:30am 6.4 2.5 5.2 92 0.5 WSW 15 33 8 18 1022.0 1022.4 0.0
10/04:00am 6.6 2.6 4.8 88 0.8 WSW 15 32 8 17 1022.0 1022.4 0.0
10/03:30am 6.6 2.5 4.6 87 0.9 SW 15 32 8 17 1022.0 1022.4 0.0
10/03:00am 6.6 2.5 4.6 87 0.9 WSW 15 28 8 15 1022.2 1022.6 0.0
10/02:30am 6.6 3.6 4.1 84 1.1 WSW 9 20 5 11 1022.2 1022.6 0.0
10/02:00am 6.8 4.4 4.5 85 1.0 WSW 6 22 3 12 1022.5 1022.9 0.0
10/01:30am 6.6 3.6 4.1 84 1.1 WSW 9 20 5 11 1022.4 1022.8 0.0
10/01:00am 6.3 3.2 3.6 83 1.2 SW 9 26 5 14 1022.3 1022.7 0.0
10/12:30am 6.6 4.4 5.1 90 0.7 E 6 13 3 7 1022.4 1022.8 0.0
10/12:00am 7.0 4.6 4.3 83 1.2 SW 6 20 3 11 1022.4 1022.8 0.0
 
Date/Time
EST
Temp
°C
App
Temp
°C
Dew
Point
°C
Rel
Hum
%
Delta-T
°C
Wind Press
QNH
hPa
Press
MSL
hPa
Rain since
9am
mm
Dir  Spd
km/h
Gust
km/h
Spd
kts
Gust
kts
09/11:30pm 7.0 2.8 3.8 80 1.4 WSW 15 30 8 16 1022.4 1022.8 0.0

Latest Capital City Observations: Canberra | Sydney | Melbourne | Brisbane | Adelaide | Perth | Hobart | Darwin

Other formats

Comma delimited format used in spreadsheet applications
http://www.bom.gov.au/fwo/IDT60901/IDT60901.95986.axf

JavaScript Object Notation format (JSON) in row-major order
http://www.bom.gov.au/fwo/IDT60901/IDT60901.95986.json

Data quality

Most of these data are generated automatically and are frequently updated. Quality checks on data are not normally performed. It is possible for incorrect values to appear. Refer to information at About Latest Weather Observations and please check the disclaimer before using these data.